This is the latest recevied weather packets stored in our database for station/object YO6RK-13. If no packets are shown the sender has not sent any weather packets the latest 10 day(s).
| Time | Temp. | Humidity | Pressure | Rain* | Wind** | Luminosity | Snow |
|---|---|---|---|---|---|---|---|
| 1777294220 | 16.67° C | 30% | 1017.4 hPa | 0 mm | - | - | - |
| 1777293618 | 16.67° C | 29% | 1017.7 hPa | 0 mm | - | - | - |
| 1777293023 | 16.67° C | 29% | 1017.8 hPa | 0 mm | - | - | - |
| 1777289443 | 15.56° C | 30% | 1018.8 hPa | 0 mm | - | - | - |
| 1777288530 | 14.44° C | 31% | 1019.1 hPa | 0 mm | - | - | - |
| 1777286720 | 14.44° C | 31% | 1019.4 hPa | 0 mm | - | - | - |
| 1777284926 | 14.44° C | 31% | 1019.4 hPa | 0 mm | - | - | - |
| 1777279824 | 13.89° C | 34% | 1020.6 hPa | 0 mm | - | - | - |
| 1777276520 | 12.78° C | 37% | 1020.7 hPa | 0 mm | - | - | - |
| 1777275609 | 12.78° C | 37% | 1020.7 hPa | 0 mm | - | - | - |
| 1777274115 | 12.78° C | 35% | 1020.6 hPa | 0 mm | - | - | - |
| 1777272337 | 11.67° C | 38% | 1021 hPa | 0 mm | - | - | - |
| 1777271727 | 11.67° C | 37% | 1021 hPa | 0 mm | - | - | - |
| 1777271109 | 11.67° C | 38% | 1020.9 hPa | 0 mm | - | - | - |
| 1777270850 | 10.56° C | 40% | 1020.9 hPa | 0 mm | - | - | - |
| 1777269338 | 10.56° C | 42% | 1021.1 hPa | 0 mm | - | - | - |
| 1777269011 | 10° C | 45% | 1021.2 hPa | 0 mm | - | - | - |
| 1777267225 | 8.89° C | 46% | 1021.1 hPa | 0 mm | - | - | - |
| 1777262732 | 3.89° C | 61% | 1020.6 hPa | 0 mm | - | - | - |
| 1777260628 | 2.22° C | 63% | 1020.2 hPa | 0 mm | - | - | - |
| 1777257923 | 2.78° C | 62% | 1020.1 hPa | 0 mm | - | - | - |
| 1777256112 | 2.78° C | 62% | 1020 hPa | 0 mm | - | - | - |
| 1777250433 | 5° C | 51% | 1019.6 hPa | 0 mm | - | - | - |
| 1777250124 | 5.56° C | 51% | 1019.6 hPa | 0 mm | - | - | - |
| 1777249531 | 5.56° C | 50% | 1019.5 hPa | 0 mm | - | - | - |
* Rain latest hour (hover to see other rain measurements)
** Current wind speed in m/s (hover to see current wind gust speed)